Time;durP1;ratioP1;P1;durP2;ratioP2;P2;SDS_P1;SDS_P2;PMS_P1;PMS_P2;Temp;Humidity;BMP_temperature;BMP_pressure;BME280_temperature;BME280_humidity;BME280_pressure;Samples;Min_cycle;Max_cycle;Signal;HPM_P1;HPM_P2
2021/06/16 00:01:49;;;;;;;4.47;3.42;;;;;;;17.66;62.80;95489.44;5048126;28;20541;-64
2021/06/16 00:04:15;;;;;;;6.65;5.30;;;;;;;17.65;63.04;95493.22;5046313;28;20116;-64
2021/06/16 00:06:40;;;;;;;9.25;5.60;;;;;;;17.64;63.17;95485.50;5047974;28;20037;-65
2021/06/16 00:09:06;;;;;;;5.40;4.47;;;;;;;17.63;63.33;95484.72;5049870;28;20029;-64
2021/06/16 00:11:32;;;;;;;7.00;4.97;;;;;;;17.58;63.17;95476.91;5047281;28;20041;-63
2021/06/16 00:13:58;;;;;;;7.00;4.85;;;;;;;17.51;63.35;95471.31;5045830;28;20041;-64
2021/06/16 00:16:24;;;;;;;7.97;5.00;;;;;;;17.58;63.58;95481.50;5047775;28;20045;-63
2021/06/16 00:18:49;;;;;;;7.28;5.50;;;;;;;17.56;63.60;95487.22;5047824;28;20476;-63
2021/06/16 00:21:16;;;;;;;5.20;4.65;;;;;;;17.52;63.36;95477.47;5047764;28;20056;-64
2021/06/16 00:23:42;;;;;;;4.60;4.18;;;;;;;17.52;63.45;95480.16;5049246;28;20044;-63
2021/06/16 00:26:09;;;;;;;5.40;4.00;;;;;;;17.51;63.29;95481.31;5047140;28;20037;-63
2021/06/16 00:28:34;;;;;;;6.38;3.78;;;;;;;17.40;63.11;95468.31;5062697;28;20124;-63
2021/06/16 00:31:00;;;;;;;6.47;3.70;;;;;;;17.34;62.97;95458.91;5067905;28;20124;-63
2021/06/16 00:33:25;;;;;;;3.95;3.55;;;;;;;17.44;63.00;95468.41;5067038;28;20028;-64
2021/06/16 00:35:51;;;;;;;4.97;3.63;;;;;;;17.46;62.66;95484.22;5068471;28;20021;-63
2021/06/16 00:38:17;;;;;;;3.40;3.10;;;;;;;17.39;62.80;95474.00;5048760;28;20552;-64
2021/06/16 00:40:43;;;;;;;4.55;4.00;;;;;;;17.45;62.88;95483.41;5040350;28;20677;-63
2021/06/16 00:43:08;;;;;;;4.82;3.45;;;;;;;17.35;62.68;95468.56;5028343;28;20033;-63
2021/06/16 00:45:33;;;;;;;3.75;3.20;;;;;;;17.42;62.94;95481.41;5049590;28;20033;-64
2021/06/16 00:47:59;;;;;;;8.18;3.38;;;;;;;17.34;62.76;95472.34;5051969;28;20021;-63
2021/06/16 00:50:37;;;;;;;4.30;3.65;;;;;;;17.37;62.74;95482.44;5050096;28;20048;-63
2021/06/16 00:53:03;;;;;;;5.30;3.55;;;;;;;17.34;62.59;95479.63;5049596;28;20491;-64
2021/06/16 00:55:28;;;;;;;3.83;3.53;;;;;;;17.32;62.45;95477.28;5031392;28;20069;-63
2021/06/16 00:57:55;;;;;;;3.83;3.22;;;;;;;17.21;62.51;95468.13;5049414;28;20592;-63
2021/06/16 01:00:26;;;;;;;3.83;3.42;;;;;;;17.14;62.82;95463.28;5031958;28;20120;-64
2021/06/16 01:03:00;;;;;;;3.80;3.13;;;;;;;17.23;62.94;95481.22;5051362;28;20033;-64
2021/06/16 01:05:33;;;;;;;3.33;3.10;;;;;;;17.18;62.79;95474.16;5032006;28;20040;-63
2021/06/16 01:08:01;;;;;;;3.83;3.15;;;;;;;17.20;62.76;95482.69;5031908;28;20120;-63
2021/06/16 01:10:30;;;;;;;4.13;3.30;;;;;;;17.19;62.77;95478.41;5049385;28;20059;-63
2021/06/16 01:13:16;;;;;;;4.40;3.30;;;;;;;17.20;62.66;95479.19;5029662;28;20041;-64
2021/06/16 01:15:52;;;;;;;3.25;2.95;;;;;;;17.09;62.76;95466.19;5016049;28;20123;-64
2021/06/16 01:18:20;;;;;;;3.35;3.05;;;;;;;17.05;62.53;95461.88;5031962;28;20459;-63
2021/06/16 01:20:49;;;;;;;4.95;3.25;;;;;;;17.11;62.51;95474.72;5051594;28;20406;-64
2021/06/16 01:23:33;;;;;;;3.65;3.35;;;;;;;17.12;62.51;95475.50;5049079;28;20120;-63
2021/06/16 01:26:01;;;;;;;4.38;3.10;;;;;;;17.10;62.59;95472.38;5048677;28;20044;-63
2021/06/16 01:28:40;;;;;;;6.70;3.25;;;;;;;17.07;62.62;95468.47;5055228;28;20067;-63
2021/06/16 01:31:08;;;;;;;4.40;3.10;;;;;;;17.05;62.65;95478.78;5051473;28;20048;-64
2021/06/16 01:33:36;;;;;;;3.50;3.05;;;;;;;16.90;62.57;95455.25;5066024;28;76289;-63
2021/06/16 01:36:02;;;;;;;2.97;2.75;;;;;;;16.97;62.33;95465.44;5071095;28;20123;-63
2021/06/16 01:38:29;;;;;;;3.35;3.05;;;;;;;16.86;62.35;95449.00;5052378;28;20079;-63
2021/06/16 01:41:00;;;;;;;3.53;3.22;;;;;;;16.82;62.20;95445.41;5062339;28;20059;-63
2021/06/16 01:43:26;;;;;;;4.95;3.33;;;;;;;16.94;62.70;95469.59;5049778;28;20033;-64
2021/06/16 01:45:53;;;;;;;3.67;3.28;;;;;;;16.92;62.36;95468.34;5050085;28;20036;-63
2021/06/16 01:48:20;;;;;;;4.72;3.13;;;;;;;16.91;62.33;95467.56;5049926;28;20028;-64
2021/06/16 01:50:49;;;;;;;3.97;3.30;;;;;;;16.90;62.39;95471.38;5034080;28;20426;-64
2021/06/16 01:53:15;;;;;;;4.63;3.20;;;;;;;16.81;62.64;95459.94;5049631;28;20767;-63
2021/06/16 01:55:41;;;;;;;4.03;3.20;;;;;;;16.78;62.67;95458.72;5048331;28;20047;-64
2021/06/16 01:58:08;;;;;;;3.83;2.92;;;;;;;16.86;62.32;95467.78;5049743;28;20029;-64
2021/06/16 02:00:37;;;;;;;3.90;2.97;;;;;;;16.83;62.55;95460.41;5031989;28;20044;-63
2021/06/16 02:03:03;;;;;;;3.28;2.65;;;;;;;16.78;62.43;95452.56;5051137;28;20074;-63
2021/06/16 02:05:32;;;;;;;3.75;3.00;;;;;;;16.76;62.19;95458.28;5049751;28;20072;-63
2021/06/16 02:08:00;;;;;;;4.13;2.70;;;;;;;16.77;62.07;95461.75;5049639;28;20053;-63
2021/06/16 02:10:32;;;;;;;4.40;2.92;;;;;;;16.68;62.34;95447.59;5049015;28;20041;-63
2021/06/16 02:13:00;;;;;;;2.97;2.78;;;;;;;16.66;62.05;95452.53;5057344;28;20037;-63
2021/06/16 02:15:34;;;;;;;4.75;3.28;;;;;;;16.57;62.51;95439.97;5049442;28;20479;-65
2021/06/16 02:18:00;;;;;;;3.00;2.80;;;;;;;16.66;62.25;95457.91;5034279;28;20032;-63
2021/06/16 02:20:27;;;;;;;5.03;3.30;;;;;;;16.63;62.14;95460.16;5049223;28;20044;-63
2021/06/16 02:22:53;;;;;;;3.00;2.70;;;;;;;16.54;62.31;95442.56;5049083;28;20039;-64
2021/06/16 02:25:19;;;;;;;8.02;3.40;;;;;;;16.49;62.34;95440.09;5048704;28;20032;-64
2021/06/16 02:27:45;;;;;;;3.90;2.80;;;;;;;16.57;62.46;95447.25;5049093;28;20483;-63
2021/06/16 02:30:11;;;;;;;4.03;3.13;;;;;;;16.53;62.68;95444.47;5033272;28;20025;-63
2021/06/16 02:32:37;;;;;;;3.80;3.15;;;;;;;16.49;62.16;95440.09;5048571;28;20039;-63
2021/06/16 02:35:04;;;;;;;3.38;2.90;;;;;;;16.51;62.52;95445.91;5047766;28;20041;-63
2021/06/16 02:37:30;;;;;;;3.75;2.85;;;;;;;16.45;62.55;95439.97;5049100;28;20512;-63
2021/06/16 02:40:01;;;;;;;3.45;3.15;;;;;;;16.44;62.36;95445.69;5025027;28;20403;-63
2021/06/16 02:42:27;;;;;;;3.67;2.72;;;;;;;16.42;62.45;95447.91;5029126;28;20037;-64
2021/06/16 02:44:54;;;;;;;5.57;3.22;;;;;;;16.41;62.47;95446.34;5050178;28;20021;-63
2021/06/16 02:47:20;;;;;;;3.92;3.30;;;;;;;16.38;62.87;95447.81;5048847;28;20861;-63
2021/06/16 02:49:54;;;;;;;3.55;2.72;;;;;;;16.36;62.70;95447.34;5048885;28;20044;-63
2021/06/16 02:52:21;;;;;;;3.20;2.90;;;;;;;16.34;62.73;95453.03;5047076;28;20063;-63
2021/06/16 02:54:55;;;;;;;3.53;3.10;;;;;;;16.33;62.68;95453.38;5048621;28;20037;-63
2021/06/16 02:57:22;;;;;;;4.07;3.10;;;;;;;16.31;62.97;95450.22;5030082;28;20020;-63
2021/06/16 02:59:50;;;;;;;5.45;3.22;;;;;;;16.30;62.56;95459.41;5050570;28;20029;-63
2021/06/16 03:02:19;;;;;;;5.05;3.10;;;;;;;16.31;63.05;95455.59;5048284;28;20037;-63
2021/06/16 03:04:46;;;;;;;3.33;3.03;;;;;;;16.33;62.63;95456.06;5048337;28;20029;-64
2021/06/16 03:07:12;;;;;;;6.78;3.55;;;;;;;16.29;62.96;95452.47;5030493;28;20031;-63
2021/06/16 03:09:38;;;;;;;5.75;2.80;;;;;;;16.38;62.67;95453.94;5048672;28;20393;-64
2021/06/16 03:12:06;;;;;;;3.45;2.80;;;;;;;16.41;62.98;95455.19;5047171;28;20115;-63
2021/06/16 03:14:32;;;;;;;3.40;2.92;;;;;;;16.28;62.56;95432.13;5033428;28;20494;-64
2021/06/16 03:16:58;;;;;;;3.55;2.95;;;;;;;16.38;62.32;95447.81;5025376;28;20462;-63
2021/06/16 03:19:24;;;;;;;2.67;2.47;;;;;;;16.48;62.24;95458.13;5038841;28;20072;-63
2021/06/16 03:21:51;;;;;;;2.97;2.78;;;;;;;16.50;61.82;95461.25;5028561;28;20037;-63
2021/06/16 03:24:20;;;;;;;2.70;2.50;;;;;;;16.50;61.99;95455.09;5028664;28;20105;-63
2021/06/16 03:26:47;;;;;;;3.28;2.70;;;;;;;16.51;62.27;95457.44;5057917;28;20016;-63
2021/06/16 03:29:13;;;;;;;4.15;2.50;;;;;;;16.49;62.21;95442.78;5051527;28;20048;-63
2021/06/16 03:31:42;;;;;;;3.20;2.90;;;;;;;16.48;62.02;95442.00;5030473;28;20402;-64
2021/06/16 03:34:08;;;;;;;5.75;2.60;;;;;;;16.65;61.68;95459.81;5055532;28;20051;-63
2021/06/16 03:36:36;;;;;;;4.35;2.80;;;;;;;16.70;61.61;95458.81;5065196;28;20036;-63
2021/06/16 03:39:06;;;;;;;3.08;2.70;;;;;;;16.73;61.52;95447.41;5032282;28;20021;-63
2021/06/16 03:41:35;;;;;;;4.30;3.05;;;;;;;16.81;61.21;95450.00;5021832;28;20053;-63
2021/06/16 03:44:00;;;;;;;5.38;2.72;;;;;;;16.91;61.31;95453.34;5051737;28;20547;-63
2021/06/16 03:46:28;;;;;;;4.05;3.13;;;;;;;17.00;61.32;95451.34;5068234;28;20059;-63
2021/06/16 03:48:55;;;;;;;4.13;2.70;;;;;;;17.09;61.03;95452.75;5068078;28;20035;-63
2021/06/16 03:51:21;;;;;;;3.10;2.80;;;;;;;17.15;60.93;95442.59;5068007;28;20429;-63
2021/06/16 03:53:49;;;;;;;5.13;2.90;;;;;;;17.30;60.47;95452.66;5069553;28;20025;-63
2021/06/16 03:56:15;;;;;;;3.60;2.70;;;;;;;17.38;60.27;95457.09;5062397;28;20049;-64
2021/06/16 03:58:41;;;;;;;4.30;2.45;;;;;;;17.41;60.08;95444.91;5047831;28;20451;-63
2021/06/16 04:01:12;;;;;;;5.00;2.90;;;;;;;17.54;59.26;95437.56;5048049;28;20456;-63
2021/06/16 04:03:37;;;;;;;4.03;2.63;;;;;;;17.77;59.37;95441.34;5047498;28;20045;-63
2021/06/16 04:06:04;;;;;;;4.70;3.10;;;;;;;18.25;58.20;95461.09;5049750;28;20033;-63
2021/06/16 04:08:30;;;;;;;3.47;2.55;;;;;;;18.51;57.47;95438.25;5030012;28;20491;-64
2021/06/16 04:10:56;;;;;;;4.70;2.47;;;;;;;18.95;56.09;95442.47;5047603;28;20729;-64
2021/06/16 04:13:22;;;;;;;2.90;2.60;;;;;;;19.46;55.03;95453.22;5029409;28;20025;-64
2021/06/16 04:15:47;;;;;;;4.80;2.25;;;;;;;19.72;53.99;95432.97;5047747;28;20583;-64
2021/06/16 04:18:13;;;;;;;2.67;2.08;;;;;;;20.19;52.66;95456.25;5047958;28;20112;-64
2021/06/16 04:20:38;;;;;;;4.38;2.30;;;;;;;20.51;52.22;95440.63;5053145;28;20016;-64
2021/06/16 04:23:04;;;;;;;5.40;2.38;;;;;;;20.80;51.20;95449.22;5051351;28;20086;-64
2021/06/16 04:25:29;;;;;;;4.90;2.15;;;;;;;20.96;50.92;95449.88;5051243;28;20052;-64
2021/06/16 04:27:55;;;;;;;2.38;2.00;;;;;;;21.13;50.07;95435.06;5052276;28;20686;-64
2021/06/16 04:30:24;;;;;;;3.83;2.08;;;;;;;21.33;49.03;95446.59;5071264;28;20025;-65
2021/06/16 04:32:51;;;;;;;2.33;2.13;;;;;;;21.46;47.79;95445.22;5072956;28;20447;-64
2021/06/16 04:35:17;;;;;;;2.50;2.00;;;;;;;21.63;47.71;95452.78;5053234;28;20055;-65
2021/06/16 04:37:42;;;;;;;3.28;1.80;;;;;;;21.83;47.72;95448.03;5053175;28;20127;-64
2021/06/16 04:40:08;;;;;;;2.00;1.85;;;;;;;22.10;47.12;95446.00;5071372;28;20559;-65
2021/06/16 04:42:34;;;;;;;2.28;2.00;;;;;;;22.01;46.92;95426.56;5038166;28;20048;-65
2021/06/16 04:44:59;;;;;;;2.30;1.95;;;;;;;22.36;45.72;95447.84;5034822;28;20021;-64
2021/06/16 04:47:24;;;;;;;7.95;2.15;;;;;;;22.54;45.69;95442.63;5033286;28;20064;-64
2021/06/16 04:49:50;;;;;;;2.28;1.80;;;;;;;22.73;45.72;95447.84;5051226;28;20114;-66
2021/06/16 04:52:15;;;;;;;2.08;1.90;;;;;;;22.73;45.09;95445.13;5050418;28;20048;-69
2021/06/16 04:54:41;;;;;;;1.77;1.67;;;;;;;22.88;44.64;95445.22;5033126;28;20036;-66
2021/06/16 04:57:07;;;;;;;2.08;1.88;;;;;;;23.03;44.45;95441.50;5052309;28;20385;-69
2021/06/16 04:59:33;;;;;;;3.47;1.95;;;;;;;23.29;43.94;95454.88;5050811;28;20036;-67
2021/06/16 05:02:00;;;;;;;3.63;2.17;;;;;;;23.56;43.24;95454.66;5051000;28;20124;-69
2021/06/16 05:04:26;;;;;;;3.92;1.95;;;;;;;23.82;43.71;95454.41;5050746;28;20045;-70
2021/06/16 05:06:54;;;;;;;2.38;1.95;;;;;;;24.16;42.78;95451.44;5051084;28;20100;-70
2021/06/16 05:09:20;;;;;;;5.20;2.28;;;;;;;24.42;42.35;95436.78;5050968;28;20094;-70
2021/06/16 05:11:46;;;;;;;3.03;2.17;;;;;;;24.59;41.44;95416.22;5052386;28;20802;-70
2021/06/16 05:14:11;;;;;;;2.75;2.15;;;;;;;24.92;40.98;95433.31;5050238;28;20564;-77
2021/06/16 05:16:36;;;;;;;3.90;1.60;;;;;;;25.18;40.45;95446.53;5050683;28;20041;-66
2021/06/16 05:19:04;;;;;;;2.72;1.98;;;;;;;25.31;40.38;95442.25;5050698;28;20087;-67
2021/06/16 05:21:29;;;;;;;2.80;1.63;;;;;;;25.26;39.66;95442.66;5050633;28;20036;-66
2021/06/16 05:23:55;;;;;;;5.07;2.15;;;;;;;25.10;40.07;95436.84;5051897;28;20029;-71
2021/06/16 05:26:20;;;;;;;2.70;1.98;;;;;;;25.17;40.69;95442.25;5050047;28;20037;-63
2021/06/16 05:28:45;;;;;;;3.10;2.17;;;;;;;24.98;39.99;95409.97;5050472;28;20036;-68
2021/06/16 05:31:11;;;;;;;2.50;1.95;;;;;;;25.22;40.03;95439.16;5048427;28;20729;-69
2021/06/16 05:33:37;;;;;;;2.17;1.98;;;;;;;25.27;39.76;95446.91;5049831;28;20052;-69
2021/06/16 05:36:06;;;;;;;2.30;1.80;;;;;;;25.13;39.54;95436.03;5052319;28;20082;-69
2021/06/16 05:38:31;;;;;;;2.25;1.88;;;;;;;25.01;39.63;95423.59;5050561;28;20402;-69
2021/06/16 05:40:57;;;;;;;2.28;2.08;;;;;;;25.08;40.01;95433.72;5050379;28;20037;-68
2021/06/16 05:43:23;;;;;;;2.58;1.85;;;;;;;25.23;39.91;95440.69;5035420;28;20040;-69
2021/06/16 05:45:48;;;;;;;5.18;2.10;;;;;;;25.06;39.66;95393.28;5069418;28;20052;-64
2021/06/16 05:48:14;;;;;;;7.70;2.50;;;;;;;25.35;40.03;95415.81;5069409;28;20024;-66
2021/06/16 05:50:39;;;;;;;5.20;2.28;;;;;;;25.57;39.85;95442.97;5071473;28;20032;-69
2021/06/16 05:53:04;;;;;;;5.68;2.08;;;;;;;25.53;39.44;95426.63;5069023;28;20035;-64
2021/06/16 05:55:30;;;;;;;3.13;2.08;;;;;;;25.66;39.95;95446.06;5056306;28;20033;-65
2021/06/16 05:57:55;;;;;;;3.47;1.90;;;;;;;25.62;39.82;95429.72;5048738;28;20042;-65
2021/06/16 06:00:21;;;;;;;4.47;2.10;;;;;;;25.66;39.48;95432.44;5048650;28;20033;-65
2021/06/16 06:02:47;;;;;;;2.60;2.17;;;;;;;25.66;38.92;95432.44;5050835;28;20013;-65
2021/06/16 06:05:13;;;;;;;3.67;1.98;;;;;;;25.72;38.77;95433.59;5047209;28;20114;-65
2021/06/16 06:07:38;;;;;;;2.47;1.75;;;;;;;25.79;38.89;95438.25;5049832;28;20174;-65
2021/06/16 06:10:04;;;;;;;3.88;2.53;;;;;;;25.81;39.28;95436.72;5048588;28;20371;-68
2021/06/16 06:12:30;;;;;;;2.85;2.03;;;;;;;25.87;39.31;95437.06;5048654;28;20057;-69
2021/06/16 06:14:55;;;;;;;5.20;2.88;;;;;;;25.88;39.14;95436.69;5051297;28;20052;-68
2021/06/16 06:17:20;;;;;;;6.15;2.28;;;;;;;25.78;38.86;95440.22;5049551;28;20048;-65
2021/06/16 06:19:46;;;;;;;5.82;2.30;;;;;;;25.68;38.65;95432.81;5049405;28;20129;-65
2021/06/16 06:22:11;;;;;;;3.55;2.03;;;;;;;25.86;38.93;95441.75;5048965;28;20053;-64
2021/06/16 06:24:37;;;;;;;6.03;2.33;;;;;;;25.95;38.71;95437.81;5049229;28;20497;-62
2021/06/16 06:27:03;;;;;;;5.45;2.40;;;;;;;25.83;38.73;95436.31;5050715;28;20040;-67
2021/06/16 06:29:28;;;;;;;2.92;2.08;;;;;;;25.78;38.72;95417.66;5055118;28;20044;-68
2021/06/16 06:31:54;;;;;;;5.63;2.55;;;;;;;25.89;39.06;95423.81;5069085;28;20429;-66
2021/06/16 06:34:19;;;;;;;4.25;2.08;;;;;;;25.98;39.21;95429.63;5068487;28;20047;-63
2021/06/16 06:36:45;;;;;;;4.53;2.20;;;;;;;26.05;39.55;95434.25;5068962;28;20415;-69
2021/06/16 06:39:10;;;;;;;4.15;2.53;;;;;;;26.01;38.83;95434.31;5071495;28;20028;-68
2021/06/16 06:41:36;;;;;;;5.18;2.40;;;;;;;26.09;39.39;95427.63;5066353;28;20033;-66
2021/06/16 06:44:02;;;;;;;2.22;2.03;;;;;;;26.23;39.19;95415.09;5048288;28;20029;-66
2021/06/16 06:46:27;;;;;;;5.90;2.38;;;;;;;26.18;38.41;95422.53;5030841;28;20040;-67
2021/06/16 06:48:52;;;;;;;3.35;2.22;;;;;;;26.06;38.53;95416.75;5048953;28;20029;-65
2021/06/16 06:51:18;;;;;;;3.85;2.75;;;;;;;26.29;39.04;95418.97;5048869;28;20094;-70
2021/06/16 06:53:43;;;;;;;3.53;2.22;;;;;;;26.43;38.39;95419.69;5044051;28;20117;-67
2021/06/16 06:56:09;;;;;;;7.82;2.58;;;;;;;26.60;38.75;95423.47;5028733;28;20521;-65
2021/06/16 06:58:35;;;;;;;4.90;2.40;;;;;;;26.72;38.21;95415.97;5053115;28;20075;-67
2021/06/16 07:01:00;;;;;;;4.40;2.45;;;;;;;26.81;37.42;95413.56;5050663;28;20122;-67
2021/06/16 07:03:26;;;;;;;3.90;2.42;;;;;;;26.95;36.90;95425.13;5066074;28;20031;-68
2021/06/16 07:05:56;;;;;;;3.55;2.80;;;;;;;26.59;36.38;95423.88;5050406;28;20029;-68
2021/06/16 07:08:21;;;;;;;10.48;2.22;;;;;;;26.01;37.88;95422.63;5048618;28;20040;-68
2021/06/16 07:10:46;;;;;;;4.13;2.45;;;;;;;25.93;38.23;95422.63;5048540;28;20037;-68
2021/06/16 07:13:12;;;;;;;4.68;2.30;;;;;;;26.27;38.31;95422.09;5041378;28;20037;-69
2021/06/16 07:15:37;;;;;;;5.38;3.08;;;;;;;26.29;37.22;95403.38;5068400;28;20113;-68
2021/06/16 07:18:03;;;;;;;3.55;2.45;;;;;;;26.41;37.91;95419.28;5070446;28;20035;-67
2021/06/16 07:20:28;;;;;;;5.32;2.80;;;;;;;26.49;38.14;95419.25;5068399;28;20093;-67
2021/06/16 07:22:54;;;;;;;4.80;2.47;;;;;;;26.55;37.32;95420.38;5049935;28;20036;-68
2021/06/16 07:25:19;;;;;;;3.55;2.60;;;;;;;26.63;37.69;95410.97;5068143;28;20517;-70
2021/06/16 07:27:45;;;;;;;12.70;2.47;;;;;;;26.33;37.54;95406.84;5057951;28;20122;-69
2021/06/16 07:30:12;;;;;;;7.82;2.80;;;;;;;25.80;38.18;95407.91;5049846;28;20544;-67
2021/06/16 07:32:39;;;;;;;4.30;2.55;;;;;;;26.32;38.12;95418.16;5030259;28;20163;-70
2021/06/16 07:35:06;;;;;;;10.25;2.75;;;;;;;26.39;37.91;95407.22;5048037;28;20110;-72
2021/06/16 07:37:31;;;;;;;4.45;2.75;;;;;;;26.35;36.20;95412.69;5048394;28;20123;-68
2021/06/16 07:39:57;;;;;;;6.38;2.88;;;;;;;26.47;36.29;95407.97;5048782;28;20112;-76
2021/06/16 07:42:23;;;;;;;4.93;2.40;;;;;;;26.65;35.62;95409.38;5046497;28;20029;-69
2021/06/16 07:44:49;;;;;;;6.15;2.13;;;;;;;26.64;36.25;95410.56;5049445;28;20078;-68
2021/06/16 07:47:14;;;;;;;3.95;2.15;;;;;;;26.89;35.63;95404.16;5064989;28;20044;-71
2021/06/16 07:49:40;;;;;;;6.68;2.90;;;;;;;26.94;35.84;95407.22;5067628;28;20051;-70
2021/06/16 07:52:06;;;;;;;3.15;2.40;;;;;;;26.93;35.55;95400.22;5067965;28;20094;-70
2021/06/16 07:54:31;;;;;;;6.07;2.38;;;;;;;26.76;34.88;95395.66;5069488;28;20094;-65
2021/06/16 07:56:57;;;;;;;3.22;2.20;;;;;;;26.86;33.96;95399.47;5070286;28;20032;-67
2021/06/16 07:59:22;;;;;;;3.92;2.47;;;;;;;27.04;34.48;95396.63;5047576;28;20029;-68
2021/06/16 08:01:48;;;;;;;4.35;2.30;;;;;;;27.14;33.76;95399.28;5052050;28;20110;-69
2021/06/16 08:04:14;;;;;;;3.72;2.50;;;;;;;27.10;34.44;95400.47;5051207;28;20040;-69
2021/06/16 08:06:39;;;;;;;4.72;2.42;;;;;;;26.96;35.75;95402.13;5052124;28;20116;-69
2021/06/16 08:09:05;;;;;;;7.07;2.55;;;;;;;26.86;35.29;95386.59;5053596;28;20128;-68
2021/06/16 08:11:30;;;;;;;4.50;2.42;;;;;;;26.80;34.52;95399.16;5052092;28;20040;-68
2021/06/16 08:13:56;;;;;;;8.80;3.05;;;;;;;26.65;35.26;95408.63;5033241;28;20530;-68
2021/06/16 08:16:22;;;;;;;4.57;2.42;;;;;;;26.63;35.18;95400.06;5031742;28;20033;-68
2021/06/16 08:18:49;;;;;;;3.00;2.20;;;;;;;26.70;34.85;95406.22;5031682;28;20491;-69
2021/06/16 08:21:16;;;;;;;3.92;2.17;;;;;;;26.96;34.98;95382.25;5031465;28;20498;-68
2021/06/16 08:23:43;;;;;;;6.28;2.80;;;;;;;27.08;33.96;95394.66;5033186;28;20498;-69
2021/06/16 08:26:09;;;;;;;7.82;2.72;;;;;;;27.33;34.61;95406.13;5030350;28;20041;-68
2021/06/16 08:28:34;;;;;;;5.10;2.42;;;;;;;27.48;32.63;95401.25;5036544;28;20029;-68
2021/06/16 08:30:59;;;;;;;3.75;2.30;;;;;;;27.63;33.66;95396.41;5051333;28;20051;-69
2021/06/16 08:33:25;;;;;;;3.83;2.13;;;;;;;27.54;33.35;95385.19;5050790;28;20082;-68
2021/06/16 08:35:50;;;;;;;5.00;2.30;;;;;;;27.63;33.90;95388.97;5035387;28;20118;-68
2021/06/16 08:38:15;;;;;;;3.85;2.60;;;;;;;27.51;32.21;95386.03;5051334;28;20147;-68
2021/06/16 08:40:41;;;;;;;8.75;3.80;;;;;;;27.84;33.29;95400.88;5051107;28;20069;-68
2021/06/16 08:43:06;;;;;;;3.30;2.20;;;;;;;27.74;31.82;95391.63;5050358;28;20053;-68
2021/06/16 08:45:36;;;;;;;6.72;3.17;;;;;;;27.82;33.11;95390.34;5063116;28;20068;-68
2021/06/16 08:48:02;;;;;;;3.70;2.35;;;;;;;27.52;33.01;95393.03;5053349;28;20082;-67
2021/06/16 08:50:28;;;;;;;5.03;2.00;;;;;;;27.66;32.62;95390.91;5051401;28;20025;-66
2021/06/16 08:52:54;;;;;;;4.53;2.60;;;;;;;27.84;32.77;95398.13;5050677;28;20037;-68
2021/06/16 08:55:21;;;;;;;3.45;2.30;;;;;;;27.72;31.81;95394.00;5050670;28;20068;-67
2021/06/16 08:57:48;;;;;;;11.90;3.42;;;;;;;27.97;32.00;95394.47;5048786;28;20029;-66
2021/06/16 09:00:15;;;;;;;4.88;2.60;;;;;;;28.03;31.05;95378.38;5050842;28;20028;-68
2021/06/16 09:02:41;;;;;;;10.27;3.10;;;;;;;28.13;32.15;95387.63;5034725;28;20028;-67
2021/06/16 09:05:07;;;;;;;5.82;2.40;;;;;;;28.25;32.92;95387.03;5034450;28;20038;-66
2021/06/16 09:07:34;;;;;;;5.80;2.70;;;;;;;27.96;32.83;95387.44;5042283;28;20040;-66
2021/06/16 09:10:11;;;;;;;8.60;2.67;;;;;;;28.14;32.72;95378.22;5050585;28;20518;-66
2021/06/16 09:12:46;;;;;;;2.70;2.03;;;;;;;28.16;30.90;95389.53;5050105;28;20052;-66
2021/06/16 09:15:15;;;;;;;2.38;2.15;;;;;;;28.08;30.73;95390.81;5042359;28;20100;-66
2021/06/16 09:17:41;;;;;;;2.80;2.20;;;;;;;28.21;31.55;95384.38;5052409;28;20029;-66
2021/06/16 09:20:07;;;;;;;2.72;1.80;;;;;;;28.28;30.46;95383.50;5050776;28;20048;-66
2021/06/16 09:22:38;;;;;;;2.72;2.30;;;;;;;28.30;30.63;95383.84;5050027;28;20030;-66
2021/06/16 09:25:08;;;;;;;4.68;2.22;;;;;;;28.32;31.23;95356.88;5050515;28;20045;-68
2021/06/16 09:27:43;;;;;;;3.22;2.00;;;;;;;28.44;30.73;95371.97;5050118;28;20033;-71
2021/06/16 09:30:34;;;;;;;5.80;1.88;;;;;;;28.31;31.49;95327.22;5063776;28;20056;-67
2021/06/16 09:33:26;;;;;;;7.40;2.00;;;;;;;28.68;31.74;95379.00;5043741;28;20036;-84
2021/06/16 09:35:52;;;;;;;4.75;2.00;;;;;;;28.14;29.29;95378.22;5068863;28;20528;-67
2021/06/16 09:38:31;;;;;;;5.57;2.25;;;;;;;28.07;30.50;95381.84;5070403;28;20045;-67
2021/06/16 09:40:58;;;;;;;3.63;2.00;;;;;;;28.07;28.35;95375.59;5049424;28;20124;-76
2021/06/16 09:43:23;;;;;;;3.55;1.70;;;;;;;28.19;28.93;95358.63;5039410;28;20107;-71
2021/06/16 09:45:59;;;;;;;2.38;1.50;;;;;;;28.39;28.11;95373.19;5029826;28;20033;-66
2021/06/16 09:48:37;;;;;;;3.45;1.70;;;;;;;28.35;27.16;95374.44;5028879;28;20391;-69
2021/06/16 09:51:17;;;;;;;4.25;2.10;;;;;;;28.27;28.28;95379.22;5032060;28;20053;-67
2021/06/16 09:53:52;;;;;;;3.20;1.92;;;;;;;28.33;26.69;95372.13;5029896;28;20121;-66
2021/06/16 09:56:18;;;;;;;2.00;1.73;;;;;;;28.11;27.71;95362.66;5030416;28;20087;-85
2021/06/16 09:58:43;;;;;;;1.48;1.38;;;;;;;28.01;26.46;95350.69;5031924;28;20033;-82
2021/06/16 10:01:09;;;;;;;2.35;1.50;;;;;;;28.35;27.97;95363.50;5032038;28;20055;-79
2021/06/16 10:03:34;;;;;;;4.22;1.80;;;;;;;28.26;29.14;95360.50;5030345;28;20041;-76
2021/06/16 10:06:11;;;;;;;4.20;1.90;;;;;;;28.26;30.26;95303.81;5032805;28;20388;-78
2021/06/16 10:08:45;;;;;;;2.88;1.75;;;;;;;28.71;27.00;95370.00;5032211;28;20624;-82
2021/06/16 10:11:11;;;;;;;4.40;2.30;;;;;;;28.99;28.21;95365.25;5032129;28;20056;-80
2021/06/16 10:13:37;;;;;;;2.10;1.45;;;;;;;29.08;26.36;95364.72;5036685;28;20501;-81
2021/06/16 10:16:04;;;;;;;2.75;1.50;;;;;;;29.27;26.66;95359.22;5051234;28;20083;-83
2021/06/16 10:18:32;;;;;;;2.13;1.90;;;;;;;29.14;26.32;95349.34;5051806;28;20029;-81
2021/06/16 10:20:57;;;;;;;2.83;2.20;;;;;;;29.36;27.44;95347.72;5054078;28;20024;-80
2021/06/16 10:23:24;;;;;;;2.55;1.73;;;;;;;29.15;25.78;95354.38;5051686;28;20041;-80
2021/06/16 10:25:50;;;;;;;2.00;1.80;;;;;;;29.24;28.04;95353.84;5050637;28;20048;-81
2021/06/16 10:28:18;;;;;;;1.80;1.60;;;;;;;28.89;24.97;95353.25;5044082;28;20049;-83
2021/06/16 10:30:44;;;;;;;3.92;1.58;;;;;;;28.81;25.65;95335.38;5039964;28;20039;-80
2021/06/16 10:33:29;;;;;;;1.80;1.48;;;;;;;28.70;24.15;95348.47;5032947;28;20025;-81
2021/06/16 10:36:18;;;;;;;1.70;1.45;;;;;;;28.98;24.65;95344.53;5032415;28;20045;-84
2021/06/16 10:39:01;;;;;;;3.03;1.70;;;;;;;28.94;23.52;95346.56;5031741;28;20069;-82
2021/06/16 10:41:45;;;;;;;1.48;1.38;;;;;;;29.22;24.34;95339.78;5029795;28;20534;-80
2021/06/16 10:44:13;;;;;;;2.75;1.40;;;;;;;29.24;23.80;95319.00;5046556;28;20528;-79
2021/06/16 10:46:52;;;;;;;3.35;1.58;;;;;;;29.33;25.45;95314.91;5051281;28;20128;-80
2021/06/16 10:49:33;;;;;;;1.70;1.58;;;;;;;29.64;25.60;95334.69;5042098;28;20083;-80
2021/06/16 10:52:00;;;;;;;2.10;1.88;;;;;;;29.38;25.13;95301.50;5031030;28;20063;-78
2021/06/16 10:54:30;;;;;;;4.78;2.00;;;;;;;29.33;27.14;95310.22;5030046;28;20083;-78
2021/06/16 10:57:00;;;;;;;2.55;1.98;;;;;;;29.42;27.51;95329.59;5031295;28;20087;-69
2021/06/16 11:00:05;;;;;;;2.92;1.65;;;;;;;29.90;26.71;95328.28;5046903;28;20119;-69
2021/06/16 11:02:31;;;;;;;1.88;1.73;;;;;;;29.82;25.96;95326.09;5041822;28;20081;-69
2021/06/16 11:05:19;;;;;;;3.13;2.08;;;;;;;30.16;26.27;95325.78;5030944;28;20056;-69
2021/06/16 11:07:45;;;;;;;3.60;1.70;;;;;;;30.06;26.28;95313.03;5048303;28;20041;-70
2021/06/16 11:10:10;;;;;;;2.05;1.83;;;;;;;30.06;25.22;95332.25;5048474;28;20049;-70
2021/06/16 11:12:38;;;;;;;4.65;1.70;;;;;;;29.72;25.62;95331.38;5047682;28;20096;-69
2021/06/16 11:15:07;;;;;;;2.13;1.92;;;;;;;29.63;25.18;95333.91;5059387;28;20105;-69
2021/06/16 11:17:33;;;;;;;3.67;1.58;;;;;;;30.07;25.54;95318.09;5048567;28;20041;-69
2021/06/16 11:20:07;;;;;;;2.75;1.83;;;;;;;30.18;26.33;95317.88;5048263;28;20045;-69
2021/06/16 11:22:44;;;;;;;1.90;1.80;;;;;;;30.21;26.27;95319.78;5058759;28;20627;-69
2021/06/16 11:25:20;;;;;;;1.90;1.60;;;;;;;29.26;26.10;95322.06;5060282;28;20057;-66
2021/06/16 11:28:06;;;;;;;5.65;5.15;;;;;;;29.96;26.24;95323.81;5033428;28;20131;-67
2021/06/16 11:30:50;;;;;;;1.95;1.83;;;;;;;30.04;26.04;95319.69;5030371;28;20089;-65
2021/06/16 11:33:15;;;;;;;2.42;1.80;;;;;;;29.87;25.47;95312.66;5047788;28;20028;-66
2021/06/16 11:35:41;;;;;;;1.70;1.55;;;;;;;29.59;24.96;95321.50;5050111;28;20113;-66
2021/06/16 11:38:31;;;;;;;3.90;1.80;;;;;;;29.33;23.98;95307.50;5048217;28;20068;-66